ihongpan.com alexa rank chart, ihongpan.com alexa rank daily changes

ihongpan.com alexa rank chart, ihongpan.com alexa rank daily changes

ihongpan.com
Actual rank:
516 634

RANK HISTORY

Date Rank Diff
2017/11/18 516 634 -504
2017/11/17 517 138 +2 054
2017/11/16 515 084 +103 009
2017/11/15 412 075 +757
2017/11/14 411 318 -1 194
2017/11/13 412 512 -1 380
2017/11/12 413 892 -519
2017/11/11 414 411 -12
2017/11/10 414 423 +1 582
2017/11/09 412 841 -64 109
2017/11/08 476 950 +94 003
2017/11/07 382 947 -86 399
2017/11/06 469 346 -1 209
2017/11/05 470 555 -176
2017/11/04 470 731 -2 416
2017/11/03 473 147 -1 247
2017/11/02 474 394 -84 944
2017/11/01 559 338 +15 098
2017/10/31 544 240 -169 868
2017/10/30 714 108 -3 357
2017/10/29 717 465 -1 823
2017/10/28 719 288 -1 334
2017/10/27 720 622 -1 127
2017/10/26 721 749 +2 681
2017/10/25 719 068 +3 845
2017/10/24 715 223 -2 477
2017/10/23 717 700 -3 757
2017/10/22 721 457 -1 395
2017/10/21 722 852 -539
2017/10/20 723 391 -701
2017/10/19 724 092 +3 011
2017/10/18 721 081 +3 507
2017/10/17 717 574 -2 523
2017/10/16 720 097 -56 314
2017/10/09 776 411 -3 910
2017/10/08 780 321 -85 182
2017/10/03 865 503 -2 522
2017/10/02 868 025 -4 338
2017/10/01 872 363 -26 632
2017/09/30 898 995 -745
2017/09/29 899 740 +4 196
2017/09/28 895 544 +5 269
2017/09/27 890 275 +2 003
2017/09/26 888 272 -3 406
2017/09/25 891 678 -4 077
2017/09/24 895 755 -1 206
2017/09/23 896 961 +4 394
2017/09/22 892 567 +4 650
2017/09/20 887 917 +1 786
2017/09/19 886 131

WIDGET FOR YOUR SITE

DOMAINS WITH THE NEAREST RANK

Domain Rank
photoreaders.jp 516 629
potenginainternet.com 516 630
changingthegameproject.com 516 631
streetweardepot.com 516 632
tradeskills4u.co.uk 516 633
ihongpan.com 516 634
licencetest.in 516 635
poderjudicialchiapas.gob.mx 516 636
polar2018.org 516 637
marinermt2.pl 516 638
localdatabase.com 516 639

DOMAINS WITH THE NEAREST RANK BY TLD .com

Domain Rank
milkbooks.com 516 624
optixapp.com 516 627
potenginainternet.com 516 630
changingthegameproject.com 516 631
streetweardepot.com 516 632
ihongpan.com 516 634
localdatabase.com 516 639
faiksonmez.com 516 643
bobcasino3.com 516 645
treasuresouq.com 516 650
coupdemainmagazine.com 516 652